Terminal Aerodrome Forecast
Issued by NWS

Current Version | Previous Version | Graphics & Text | Print | Product List | Glossary On
Versions: 1 2 3 4 5 6 7 8 9 10 11 12 13 14 15 16 17 18 19 20 21 22 23
888
FTUS41 KILN 182333
TAFLUK
TAF
KLUK 182333Z 1900/1924 VRB03KT P6SM OVC015
      TEMPO 1906/1908 BKN025
     FM190800 VRB03KT 5SM BR FEW025 BKN250
     FM191300 11005KT P6SM BKN250
     FM192200 12007KT P6SM VCSH OVC045
      TEMPO 1923/1924 5SM -RA OVC020=

USA.gov is the U.S. government's official web portal to all federal, state and local government web resources and services.